Flight Track Log - Related Links

Times and Time Zones

All times are in EDT time to prevent confusion due to time zone crossing. See the KAP5 flight status page for this flight to view local times or setup timezone preferences in your user account.

Time Position Orientation Groundspeed Altitude Reporting Facility
EDT Latitude Longitude Course Direction KTS MPH feet Rate Location/Type
Sun 12:37:22 PM 42.3333 -71.0167 160° South 108 124 1,200  Level KA90
Sun 12:38:22 PM 42.3000 -71.0000 160° South 109 125 1,800 600 Climbing KA90
Sun 12:40:00 PM 42.2650 -70.9849 162° South  Level Estimated
Sun 12:47:00 PM 42.1150 -70.9203 162° South  Level Estimated
Sun 12:48:00 PM 42.0936 -70.9111 162° South  Level Estimated
Sun 12:49:00 PM 42.0722 -70.9019 162° South  Level Estimated
Sun 12:50:00 PM 42.0507 -70.8927 162° South  Level Estimated
Sun 12:51:00 PM 42.0293 -70.8835 162° South  Level Estimated
Sun 12:52:00 PM 42.0079 -70.8743 162° South  Level Estimated
Sun 12:53:00 PM 41.9865 -70.8652 162° South  Level Estimated
Sun 12:54:00 PM 41.9650 -70.8560 162° South  Level Estimated
Sun 12:55:00 PM 41.9436 -70.8468 162° South  Level Estimated
Sun 12:56:00 PM 41.9222 -70.8377 162° South  Level Estimated
Sun 12:57:00 PM 41.9007 -70.8285 162° South  Level Estimated
Sun 12:58:00 PM 41.8793 -70.8194 162° South  Level Estimated
Sun 12:59:00 PM 41.8578 -70.8102 162° South  Level Estimated
Sun 01:00:00 PM 41.8364 -70.8011 162° South  Level Estimated
Sun 01:01:00 PM 41.8150 -70.7920 162° South  Level Estimated
Sun 01:02:00 PM 41.7935 -70.7829 162° South  Level Estimated
Sun 01:03:00 PM 41.7721 -70.7738 162° South  Level Estimated
Sun 01:04:00 PM 41.7506 -70.7647 162° South  Level Estimated
Sun 01:05:00 PM 41.7292 -70.7556 162° South  Level Estimated
Sun 01:06:00 PM 41.7078 -70.7465 162° South  Level Estimated
Sun 01:07:00 PM 41.6863 -70.7374 162° South  Level Estimated
Sun 01:08:00 PM 41.6649 -70.7283 162° South  Level Estimated
Sun 01:09:00 PM 41.6435 -70.7192 162° South  Level Estimated
Sun 01:10:00 PM 41.6220 -70.7102 162° South  Level Estimated
Sun 01:11:00 PM 41.6006 -70.7011 162° South  Level Estimated
Sun 01:12:00 PM 41.5791 -70.6920 162° South  Level Estimated
Sun 01:13:00 PM 41.5577 -70.6830 162° South  Level Estimated

Login

Don't have an account? Register now (free) for customized features, flight alerts, and more!